aviador You're here:

KORE Decoded Metar

ORANGE in MA, USA
Report Time2018-02-22 14:52:00
UTC Time2018-02-22 15:04:49
Flight Rules vfr VFR
Wind350° at 06 kt
W.Decomp.*RWY 01: 6.0 kt HW 0.5 kt LCW
RWY 32: 4.2 kt HW 4.2 kt RCW
W.Rank350° ranks 12
Current wind is below 350° avg. (7.1)
Visibility9999 m
Phenomena:N/A
Clouds:Scattered 075 Hf
Overcast 090 Hf
Expected CloudBase > 4,800 ft AGL from Temp-Dew spread
Ceiling9,000 ft
Temp03°C (ISA -11)
Dew Point-9°C (41% RH)
AAT-2.1°C
QNH1038 hPa
Density Alt-1,585 ft
Elevation538 ft
Report Wrong Elevation
Raw Report
KORE 221452Z AUTO 35006KT 10SM SCT075 OVC090 03/M09 A3066 RMK AO2
PRESRR SLP387 60000 T00331089 50014 $=

Extra information for KORE:More info

Metar Taf Metar & Taf Last 4 Metars F.Rules Stats Wind Profile Meteogram Temp Stats Airport Information Weather charts Add Link Nearby VenuesMetar ALERT Operation Metar Decoded Social comments

AIRNAV info for KORE